Decoded Metar for KITR (BURLINGTON in CO, USA) (IATA:ITR) | Meteo·Mobile Aviation Weather
aviador You're here:

KITR Decoded Metar

BURLINGTON in CO, USA
Report Time2018-10-22 08:53:00
UTC Time2018-10-22 09:31:05
Flight Rules mvfr MVFR
Wind280° at 08 kt
W.Decomp.*RWY 33: 4.0 kt HW 6.9 kt LCW
W.Rank280° ranks 26
Current wind is above 280° avg. (7.9)
Visibility8047 m
Phenomena:Haze
Clouds:N/A
Expected CloudBase > 2,000 ft AGL from Temp-Dew spread
CeilingNone
Temp06°C (ISA -1)
Dew Point01°C (71% RH)
AAT1.3°C
QNH1019 hPa
Density Alt4,016 ft
Elevation4,196 ft
Report Wrong Elevation
Raw Report
KITR 220853Z AUTO 28008KT 5SM HZ CLR 06/01 A3009 RMK AO2 SLP156
T00610006 53004=

Extra information for KITR:More info

Metar Taf Metar & Taf Last 4 Metars F.Rules Stats Wind Profile Meteogram Temp Stats Airport Information Weather charts Add Link Nearby VenuesMetar ALERT Operation Metar Decoded Social comments

AIRNAV info for KITR